Terminal Aerodrome Forecast
Issued by NWS

Home | Current Version | Previous Version | Text Only | Print | Product List | Glossary On
Versions: 1 2 3 4 5 6 7 8 9 10 11 12 13 14 15 16
000
FTUS42 KGSP 231132
TAFGMU
TAF
KGMU 231132Z 2312/2412 13010KT 6SM -SHRA BR OVC002
     FM231400 15013G18KT 4SM SHRA BR VCTS OVC004CB
      TEMPO 2314/2317 1SM +SHRA BR OVC002
     FM231700 17014G22KT 1 1/2SM SHRA BR VCTS OVC003CB WS020/17040KT
      TEMPO 2317/2320 3/4SM +TSRA BR OVC005CB
     FM232000 21010KT 6SM -SHRA OVC008
     FM232200 22010KT P6SM BKN040
     FM240000 23007KT P6SM SCT120=

USA.gov is the U.S. government's official web portal to all federal, state and local government web resources and services.